Aérodrome :
LOGIN :

S'inscrire | Disclaimer

   EN    FR    IT 

 










Légende :    VFR   VFR Marginal   IFR   IFR Intensif   IFR Très Intensif
Visi : 
Plafond : 
>= 8 km
>= 3000ft
5 à 8 km
1000 à 3000 ft
1500m à 5 km
500 à 1000 ft
800 à 1500m
200 à 500 ft
< 800m
< 200 ft
Symboles :   Orages  Brouillard  Fortes neiges  Fortes précipitations  Vent > 20 kt
SIGMETs :   Divers  Orages  Givrage  Turbulence  Onde Orograph.  Cendres Volcan.






- Altitude de l'aérodrome : 1959 ft
- Code IATA : HOQ


EDQM - Hof Plauen

DERNIER METAR :
  • 250920Z 25011KT 9999 FEW016 SCT040 BKN094 10/07 Q0999

METARs EXPIRÉS :
  • 250850Z 25013KT 210V270 9999 FEW016 SCT080 BKN160 10/07 Q0999
  • 250820Z 25011KT 9999 FEW010 SCT041 BKN072 10/08 Q0999
  • 250750Z 24006KT 210V270 9999 FEW010 SCT031 BKN043 11/09 Q0999
  • 250720Z 26014KT 9000 DZ FEW007 BKN026 BKN051 10/09 Q0999
  • 250650Z 25010KT 9999 SCT011 BKN064 11/10 Q0998

TAF TAF EDQM
Valide du 25 à 09h jusqu'au 25 à 18h UTC


250800Z 2509/2518 25007KT 9999 BKN030



MET'MAP, la Météo Aéronautique d'un coup d'oeil ! - Copyright ORBIFLY Décembre 2007 - Disclaimer

ORBIFLY MET'MAP TEAM :

Programmation & Développement : Alexandra Zaïnal
Sur une idée originale de : Baudouin d'Aumeries
Assistance à la programmation : Marc-Olivier Méhu
Soutien technique & logistique : Manuel Goepfert

Contact : metmap@orbifly.com




SOURCES & CREDITS :

   NOAA